Terminal Aerodrome Forecast
Issued by NWS

Home | Current Version | Previous Version | Text Only | Print | Product List | Glossary On
Versions: 1 2 3 4 5 6 7 8 9 10 11 12 13 14
000
FTUS43 KICT 131100
TAFHUT
TAF
KHUT 131129Z 1312/1412 VRB03KT 4SM BR SKC
      TEMPO 1312/1314 2SM BR
     FM131400 15009KT P6SM FEW030 SCT070=

USA.gov is the U.S. government's official web portal to all federal, state and local government web resources and services.